createdAt,value
2024-01-29T00:00:21.143Z,2.50
2024-01-29T00:02:57.910Z,2.50
2024-01-29T00:05:34.855Z,2.50
2024-01-29T00:08:13.524Z,2.50
2024-01-29T00:10:50.779Z,2.50
2024-01-29T00:13:28.393Z,2.48
2024-01-29T00:16:05.333Z,2.50
2024-01-29T00:18:42.473Z,2.50
2024-01-29T00:21:20.251Z,2.50
2024-01-29T00:23:57.857Z,2.50
2024-01-29T00:26:35.257Z,2.50
2024-01-29T00:29:11.924Z,2.50
2024-01-29T00:31:48.962Z,2.50
2024-01-29T00:34:26.528Z,2.40
2024-01-29T00:37:03.478Z,2.40
2024-01-29T00:39:40.216Z,2.32
2024-01-29T00:42:17.049Z,2.30
2024-01-29T00:44:54.013Z,2.30
2024-01-29T00:47:31.230Z,2.26
2024-01-29T00:50:09.847Z,2.20
2024-01-29T00:52:46.790Z,2.20
2024-01-29T00:55:24.823Z,2.10
2024-01-29T00:58:02.703Z,2.00
2024-01-29T01:00:40.139Z,1.96
2024-01-29T01:03:17.682Z,1.90
2024-01-29T01:05:55.733Z,1.90
2024-01-29T01:08:32.905Z,1.90
2024-01-29T01:11:10.952Z,1.94
2024-01-29T01:13:48.199Z,2.00
2024-01-29T01:16:24.963Z,1.96
2024-01-29T01:19:01.795Z,1.90
2024-01-29T01:21:38.990Z,2.00
2024-01-29T01:24:17.910Z,1.90
2024-01-29T01:26:54.268Z,1.90
2024-01-29T01:29:31.183Z,1.90
2024-01-29T01:32:09.381Z,1.80
2024-01-29T01:34:46.390Z,1.80
2024-01-29T01:37:23.897Z,1.80
2024-01-29T01:40:01.373Z,1.80
2024-01-29T01:42:38.692Z,1.80
2024-01-29T01:45:19.947Z,1.80
2024-01-29T01:47:57.525Z,1.70
2024-01-29T01:50:35.132Z,1.70
2024-01-29T01:53:11.406Z,1.60
2024-01-29T01:55:48.943Z,1.40
2024-01-29T01:58:26.936Z,1.30
2024-01-29T02:01:05.001Z,1.30
2024-01-29T02:03:41.773Z,1.20
2024-01-29T02:06:19.009Z,1.10
2024-01-29T02:08:58.051Z,1.10
2024-01-29T02:11:35.024Z,1.10
2024-01-29T02:14:12.069Z,0.96
2024-01-29T02:16:48.842Z,0.90
2024-01-29T02:19:26.602Z,0.82
2024-01-29T02:22:03.883Z,0.80
2024-01-29T02:24:40.432Z,0.82
2024-01-29T02:27:16.835Z,0.90
2024-01-29T02:29:53.802Z,0.90
2024-01-29T02:32:29.879Z,0.90
2024-01-29T02:35:07.653Z,1.00
2024-01-29T02:37:45.138Z,1.04
2024-01-29T02:40:22.168Z,1.10
2024-01-29T02:42:59.721Z,1.10
2024-01-29T02:45:36.888Z,1.10
2024-01-29T02:48:16.466Z,1.10
2024-01-29T02:50:53.107Z,1.10
2024-01-29T02:53:29.872Z,1.10
2024-01-29T02:56:06.430Z,1.10
2024-01-29T02:58:42.648Z,1.20
2024-01-29T03:01:21.292Z,1.20
2024-01-29T03:03:58.371Z,1.20
2024-01-29T03:06:35.505Z,1.20
2024-01-29T03:09:12.595Z,1.20
2024-01-29T03:11:49.622Z,1.20
2024-01-29T03:14:26.479Z,1.20
2024-01-29T03:17:03.667Z,1.30
2024-01-29T03:19:40.620Z,1.30
2024-01-29T03:22:17.508Z,1.30
2024-01-29T03:24:54.467Z,1.32
2024-01-29T03:27:31.280Z,1.30
2024-01-29T03:30:11.913Z,1.30
2024-01-29T03:32:49.930Z,1.30
2024-01-29T03:35:26.571Z,1.30
2024-01-29T03:38:04.170Z,1.24
2024-01-29T03:40:41.490Z,1.20
2024-01-29T03:43:18.382Z,1.22
2024-01-29T03:45:55.704Z,1.20
2024-01-29T03:48:33.817Z,1.24
2024-01-29T03:51:11.084Z,1.30
2024-01-29T03:53:47.976Z,1.32
2024-01-29T03:56:25.339Z,1.30
2024-01-29T03:59:02.654Z,1.30
2024-01-29T04:01:39.632Z,1.30
2024-01-29T04:04:16.531Z,1.30
2024-01-29T04:06:53.031Z,1.30
2024-01-29T04:09:30.128Z,1.24
2024-01-29T04:12:08.336Z,1.20
2024-01-29T04:14:45.620Z,1.20
2024-01-29T04:17:22.735Z,1.14
2024-01-29T04:19:59.502Z,1.10
2024-01-29T04:22:36.422Z,1.10
2024-01-29T04:25:15.499Z,1.10
2024-01-29T04:27:52.764Z,1.10
2024-01-29T04:30:30.232Z,1.10
2024-01-29T04:33:07.234Z,1.10
2024-01-29T04:35:44.110Z,1.10
2024-01-29T04:38:21.211Z,1.10
2024-01-29T04:40:58.092Z,1.10
2024-01-29T04:43:35.317Z,1.00
2024-01-29T04:46:12.675Z,1.00
2024-01-29T04:48:49.003Z,1.10
2024-01-29T04:51:25.749Z,1.00
2024-01-29T04:54:03.350Z,1.00
2024-01-29T04:56:39.875Z,1.00
2024-01-29T04:59:16.209Z,1.00
2024-01-29T05:01:53.203Z,0.92
2024-01-29T05:04:30.589Z,0.90
2024-01-29T05:07:08.581Z,0.92
2024-01-29T05:09:45.555Z,0.90
2024-01-29T05:12:22.571Z,0.90
2024-01-29T05:15:00.161Z,0.88
2024-01-29T05:17:37.342Z,0.80
2024-01-29T05:20:18.640Z,0.80
2024-01-29T05:22:54.843Z,0.80
2024-01-29T05:25:31.239Z,0.80
2024-01-29T05:28:10.746Z,0.80
2024-01-29T05:30:47.577Z,0.70
2024-01-29T05:33:26.848Z,0.70
2024-01-29T05:36:04.492Z,0.70
2024-01-29T05:38:41.618Z,0.60
2024-01-29T05:41:18.035Z,0.60
2024-01-29T05:43:55.281Z,0.60
2024-01-29T05:46:32.387Z,0.60
2024-01-29T05:49:10.000Z,0.66
2024-01-29T05:51:48.623Z,0.70
2024-01-29T05:54:26.219Z,0.70
2024-01-29T05:57:02.982Z,0.70
2024-01-29T05:59:39.208Z,0.70
2024-01-29T06:02:16.335Z,0.70
2024-01-29T06:04:53.588Z,0.72
2024-01-29T06:07:30.341Z,0.80
2024-01-29T06:10:08.967Z,0.80
2024-01-29T06:12:46.087Z,0.80
2024-01-29T06:15:23.314Z,0.90
2024-01-29T06:17:59.739Z,0.90
2024-01-29T06:20:36.965Z,0.90
2024-01-29T06:23:16.310Z,0.96
2024-01-29T06:25:53.202Z,1.00
2024-01-29T06:28:29.514Z,1.00
2024-01-29T06:31:08.556Z,0.98
2024-01-29T06:33:44.916Z,0.90
2024-01-29T06:36:26.514Z,0.88
2024-01-29T06:39:03.685Z,0.80
2024-01-29T06:41:40.410Z,0.80
2024-01-29T06:44:18.234Z,0.80
2024-01-29T06:46:55.058Z,0.80
2024-01-29T06:49:36.962Z,0.80
2024-01-29T06:52:16.902Z,0.68
2024-01-29T06:54:55.309Z,0.60
2024-01-29T06:57:31.205Z,0.66
2024-01-29T07:00:15.367Z,0.60
2024-01-29T07:02:52.652Z,0.60
2024-01-29T07:05:30.915Z,0.60
2024-01-29T07:08:08.518Z,0.60
2024-01-29T07:10:45.116Z,0.60
2024-01-29T07:13:21.987Z,0.60
2024-01-29T07:15:59.835Z,0.50
2024-01-29T07:18:37.850Z,0.50
2024-01-29T07:21:17.881Z,0.50
2024-01-29T07:23:54.336Z,0.50
2024-01-29T07:26:31.283Z,0.50
2024-01-29T07:29:08.102Z,0.50
2024-01-29T07:31:45.580Z,0.58
2024-01-29T07:34:22.731Z,0.60
2024-01-29T07:36:59.497Z,0.60
2024-01-29T07:39:36.108Z,0.60
2024-01-29T07:42:14.008Z,0.66
2024-01-29T07:44:49.896Z,0.60
2024-01-29T07:47:27.207Z,0.60
2024-01-29T07:50:04.247Z,0.54
2024-01-29T07:52:41.141Z,0.50
2024-01-29T07:55:18.409Z,0.40
2024-01-29T07:57:55.666Z,0.30
2024-01-29T08:00:33.320Z,0.30
2024-01-29T08:03:10.832Z,0.30
2024-01-29T08:05:47.692Z,0.30
2024-01-29T08:08:25.146Z,0.30
2024-01-29T08:11:03.888Z,0.22
2024-01-29T08:13:40.445Z,0.30
2024-01-29T08:16:17.279Z,0.30
2024-01-29T08:18:54.565Z,0.30
2024-01-29T08:21:30.898Z,0.30
2024-01-29T08:24:07.629Z,0.30
2024-01-29T08:26:44.701Z,0.40
2024-01-29T08:29:21.701Z,0.48
2024-01-29T08:31:58.508Z,0.50
2024-01-29T08:34:34.908Z,0.56
2024-01-29T08:37:12.335Z,0.60
2024-01-29T08:39:49.998Z,0.60
2024-01-29T08:42:27.478Z,0.70
2024-01-29T08:45:04.572Z,0.80
2024-01-29T08:47:42.701Z,0.88
2024-01-29T08:50:21.066Z,0.92
2024-01-29T08:52:59.393Z,1.00
2024-01-29T08:55:37.111Z,1.02
2024-01-29T08:58:14.383Z,1.10
2024-01-29T09:00:55.289Z,1.10
2024-01-29T09:03:32.817Z,1.10
2024-01-29T09:06:10.633Z,1.20
2024-01-29T09:08:50.205Z,1.20
2024-01-29T09:11:27.062Z,1.30
2024-01-29T09:14:03.549Z,1.30
2024-01-29T09:16:40.371Z,1.40
2024-01-29T09:19:17.683Z,1.48
2024-01-29T09:21:57.992Z,1.50
2024-01-29T09:24:34.754Z,1.60
2024-01-29T09:27:11.900Z,1.70
2024-01-29T09:29:48.621Z,1.70
2024-01-29T09:32:25.583Z,1.80
2024-01-29T09:35:02.898Z,1.80
2024-01-29T09:37:41.155Z,1.90
2024-01-29T09:40:22.823Z,1.90
2024-01-29T09:43:08.923Z,2.00
2024-01-29T09:45:46.844Z,2.08
2024-01-29T09:48:24.707Z,2.16
2024-01-29T09:51:03.747Z,2.20
2024-01-29T09:53:43.196Z,2.20
2024-01-29T09:56:20.637Z,2.30
2024-01-29T09:58:57.196Z,2.40
2024-01-29T10:01:34.911Z,2.50
2024-01-29T10:04:12.298Z,2.60
2024-01-29T10:06:49.360Z,2.60
2024-01-29T10:09:26.975Z,2.70
2024-01-29T10:12:04.392Z,2.76
2024-01-29T10:14:42.758Z,2.80
2024-01-29T10:17:19.700Z,2.80
2024-01-29T10:19:57.561Z,2.80
2024-01-29T10:22:34.955Z,2.80
2024-01-29T10:25:17.449Z,2.80
2024-01-29T10:27:54.165Z,2.80
2024-01-29T10:30:32.173Z,2.82
2024-01-29T10:33:11.206Z,2.90
2024-01-29T10:35:48.658Z,2.90
2024-01-29T10:38:27.893Z,2.90
2024-01-29T10:41:10.352Z,2.98
2024-01-29T10:43:52.476Z,3.00
2024-01-29T10:46:30.172Z,3.08
2024-01-29T10:49:07.947Z,3.08
2024-01-29T10:51:47.976Z,3.10
2024-01-29T10:54:25.214Z,3.10
2024-01-29T10:57:03.266Z,3.10
2024-01-29T10:59:41.282Z,3.10
2024-01-29T11:02:22.702Z,3.14
2024-01-29T11:04:59.860Z,3.20
2024-01-29T11:07:38.099Z,3.20
2024-01-29T11:10:23.050Z,3.30
2024-01-29T11:13:02.880Z,3.30
2024-01-29T11:15:43.299Z,3.30
2024-01-29T11:18:21.786Z,3.40
2024-01-29T11:21:02.062Z,3.40
2024-01-29T11:23:48.163Z,3.40
2024-01-29T11:26:25.090Z,3.50
2024-01-29T11:29:06.960Z,3.50
2024-01-29T11:31:49.721Z,3.50
2024-01-29T11:34:34.315Z,3.60
2024-01-29T11:37:13.308Z,3.58
2024-01-29T11:39:54.393Z,3.56
2024-01-29T11:42:31.485Z,3.60
2024-01-29T11:45:13.077Z,3.60
2024-01-29T11:47:51.334Z,3.50
2024-01-29T11:50:27.791Z,3.50
2024-01-29T11:53:05.944Z,3.60
2024-01-29T11:55:43.990Z,3.60
2024-01-29T11:58:21.931Z,3.60
2024-01-29T12:00:59.652Z,3.60
2024-01-29T12:03:37.949Z,3.70
2024-01-29T12:06:16.127Z,3.70
2024-01-29T12:08:58.586Z,3.80
2024-01-29T12:11:36.512Z,3.90
2024-01-29T12:14:16.704Z,3.92
2024-01-29T12:16:53.751Z,3.98
2024-01-29T12:19:31.966Z,4.00
2024-01-29T12:22:15.213Z,4.00
2024-01-29T12:24:52.178Z,4.00
2024-01-29T12:27:28.567Z,4.00
2024-01-29T12:30:09.540Z,4.00
2024-01-29T12:32:48.812Z,4.10
2024-01-29T12:35:37.622Z,4.20
2024-01-29T12:38:18.705Z,4.30
2024-01-29T12:41:01.513Z,4.30
2024-01-29T12:43:38.730Z,4.40
2024-01-29T12:46:18.133Z,4.50
2024-01-29T12:48:55.374Z,4.60
2024-01-29T12:51:32.019Z,4.66
2024-01-29T12:54:09.995Z,4.80
2024-01-29T12:56:46.707Z,4.90
2024-01-29T12:59:22.929Z,4.90
2024-01-29T13:02:00.798Z,4.90
2024-01-29T13:04:38.466Z,4.90
2024-01-29T13:07:17.029Z,4.90
2024-01-29T13:09:55.082Z,4.90
2024-01-29T13:12:32.280Z,5.00
2024-01-29T13:15:13.127Z,5.10
2024-01-29T13:17:50.329Z,5.20
2024-01-29T13:20:28.237Z,5.30
2024-01-29T13:23:05.390Z,5.30
2024-01-29T13:25:42.884Z,5.40
2024-01-29T13:28:19.708Z,5.50
2024-01-29T13:30:57.554Z,5.50
2024-01-29T13:33:34.839Z,5.54
2024-01-29T13:36:14.377Z,5.60
2024-01-29T13:38:51.209Z,5.70
2024-01-29T13:41:27.863Z,5.80
2024-01-29T13:44:05.602Z,5.90
2024-01-29T13:46:42.716Z,6.00
2024-01-29T13:49:19.984Z,6.08
2024-01-29T13:51:56.969Z,6.10
2024-01-29T13:54:34.849Z,6.20
2024-01-29T13:57:13.872Z,6.28
2024-01-29T13:59:50.765Z,6.30
2024-01-29T14:02:27.782Z,6.40
2024-01-29T14:05:06.516Z,6.40
2024-01-29T14:07:44.067Z,6.50
2024-01-29T14:10:21.749Z,6.50
2024-01-29T14:12:58.958Z,6.50
2024-01-29T14:15:36.375Z,6.50
2024-01-29T14:18:14.776Z,6.50
2024-01-29T14:20:51.886Z,6.50
2024-01-29T14:23:28.927Z,6.50
2024-01-29T14:26:05.404Z,6.50
2024-01-29T14:28:42.507Z,6.50
2024-01-29T14:31:20.525Z,6.50
2024-01-29T14:33:59.152Z,6.60
2024-01-29T14:36:36.969Z,6.60
2024-01-29T14:39:16.514Z,6.60
2024-01-29T14:41:58.692Z,6.56
2024-01-29T14:44:36.030Z,6.60
2024-01-29T14:47:17.560Z,6.58
2024-01-29T14:49:54.695Z,6.50
2024-01-29T14:52:32.081Z,6.50
2024-01-29T14:55:10.652Z,6.50
2024-01-29T14:57:47.491Z,6.50
2024-01-29T15:00:28.467Z,6.50
2024-01-29T15:03:06.487Z,6.50
2024-01-29T15:05:46.408Z,6.50
2024-01-29T15:08:23.726Z,6.50
2024-01-29T15:11:01.906Z,6.50
2024-01-29T15:13:39.519Z,6.50
2024-01-29T15:16:17.891Z,6.48
2024-01-29T15:18:54.960Z,6.40
2024-01-29T15:21:32.090Z,6.40
2024-01-29T15:24:10.500Z,6.40
2024-01-29T15:26:51.563Z,6.40
2024-01-29T15:29:28.358Z,6.38
2024-01-29T15:32:05.536Z,6.30
2024-01-29T15:34:49.082Z,6.30
2024-01-29T15:37:26.234Z,6.30
2024-01-29T15:40:04.674Z,6.28
2024-01-29T15:42:43.335Z,6.20
2024-01-29T15:45:20.291Z,6.20
2024-01-29T15:48:00.567Z,6.18
2024-01-29T15:50:37.722Z,6.10
2024-01-29T15:53:14.898Z,6.08
2024-01-29T15:55:52.310Z,6.00
2024-01-29T15:58:30.936Z,6.00
2024-01-29T16:01:09.186Z,5.90
2024-01-29T16:03:46.167Z,5.90
2024-01-29T16:06:23.353Z,5.80
2024-01-29T16:09:27.392Z,5.80
2024-01-29T16:12:03.971Z,5.70
2024-01-29T16:14:40.962Z,5.70
2024-01-29T16:17:18.941Z,5.64
2024-01-29T16:19:56.151Z,5.60
2024-01-29T16:22:33.592Z,5.52
2024-01-29T16:25:13.304Z,5.50
2024-01-29T16:27:51.793Z,5.40
2024-01-29T16:30:30.372Z,5.40
2024-01-29T16:33:09.607Z,5.30
2024-01-29T16:35:47.810Z,5.28
2024-01-29T16:38:26.199Z,5.20
2024-01-29T16:41:02.799Z,5.20
2024-01-29T16:43:41.299Z,5.20
2024-01-29T16:46:18.479Z,5.16
2024-01-29T16:48:59.062Z,5.10
2024-01-29T16:51:36.343Z,5.10
2024-01-29T16:54:14.381Z,5.08
2024-01-29T16:56:52.375Z,5.00
2024-01-29T16:59:29.836Z,4.92
2024-01-29T17:02:08.384Z,4.90
2024-01-29T17:04:46.565Z,4.90
2024-01-29T17:07:24.007Z,4.80
2024-01-29T17:10:00.839Z,4.72
2024-01-29T17:12:38.060Z,4.70
2024-01-29T17:15:21.795Z,4.66
2024-01-29T17:17:59.180Z,4.60
2024-01-29T17:20:36.751Z,4.54
2024-01-29T17:23:15.121Z,4.50
2024-01-29T17:25:55.822Z,4.50
2024-01-29T17:28:34.327Z,4.42
2024-01-29T17:31:16.566Z,4.40
2024-01-29T17:33:54.757Z,4.32
2024-01-29T17:36:32.013Z,4.30
2024-01-29T17:39:10.894Z,4.22
2024-01-29T17:41:48.673Z,4.20
2024-01-29T17:44:29.093Z,4.16
2024-01-29T17:47:06.742Z,4.10
2024-01-29T17:49:45.504Z,4.10
2024-01-29T17:52:23.478Z,4.10
2024-01-29T17:55:00.752Z,4.00
2024-01-29T17:57:38.123Z,4.00
2024-01-29T18:00:24.504Z,3.90
2024-01-29T18:03:01.654Z,3.90
2024-01-29T18:05:43.565Z,3.80
2024-01-29T18:08:36.975Z,3.80
2024-01-29T18:11:23.307Z,3.80
2024-01-29T18:14:21.630Z,3.78
2024-01-29T18:17:07.612Z,3.78
2024-01-29T18:19:59.067Z,3.70
2024-01-29T18:22:45.488Z,3.62
2024-01-29T18:25:23.433Z,3.60
2024-01-29T18:28:04.347Z,3.60
2024-01-29T18:30:59.079Z,3.60
2024-01-29T18:33:47.109Z,3.60
2024-01-29T18:36:39.397Z,3.60
2024-01-29T18:39:27.003Z,3.60
2024-01-29T18:42:13.432Z,3.60
2024-01-29T18:44:54.955Z,3.54
2024-01-29T18:47:38.178Z,3.50
2024-01-29T18:50:21.810Z,3.50
2024-01-29T18:53:06.932Z,3.44
2024-01-29T18:55:44.028Z,3.40
2024-01-29T18:58:21.440Z,3.38
2024-01-29T19:00:59.639Z,3.30
2024-01-29T19:03:36.791Z,3.30
2024-01-29T19:06:15.742Z,3.22
2024-01-29T19:08:52.399Z,3.20
2024-01-29T19:11:31.203Z,3.20
2024-01-29T19:14:07.698Z,3.20
2024-01-29T19:16:48.196Z,3.14
2024-01-29T19:19:26.568Z,3.18
2024-01-29T19:22:03.536Z,3.14
2024-01-29T19:24:41.809Z,3.18
2024-01-29T19:27:21.411Z,3.10
2024-01-29T19:29:59.114Z,3.10
2024-01-29T19:32:37.409Z,3.06
2024-01-29T19:35:20.257Z,3.00
2024-01-29T19:37:57.256Z,3.00
2024-01-29T19:40:38.417Z,3.00
2024-01-29T19:43:14.943Z,3.00
2024-01-29T19:45:54.833Z,3.00
2024-01-29T19:48:32.337Z,3.00
2024-01-29T19:51:09.433Z,3.00
2024-01-29T19:53:46.846Z,3.00
2024-01-29T19:56:25.455Z,2.94
2024-01-29T19:59:03.508Z,2.90
2024-01-29T20:01:41.121Z,2.90
2024-01-29T20:04:18.443Z,2.80
2024-01-29T20:06:58.688Z,2.80
2024-01-29T20:09:35.486Z,2.80
2024-01-29T20:12:16.149Z,2.80
2024-01-29T20:14:52.632Z,2.70
2024-01-29T20:17:31.239Z,2.62
2024-01-29T20:20:09.218Z,2.60
2024-01-29T20:22:46.427Z,2.60
2024-01-29T20:25:24.369Z,2.58
2024-01-29T20:28:02.837Z,2.52
2024-01-29T20:30:41.345Z,2.50
2024-01-29T20:33:19.373Z,2.50
2024-01-29T20:35:56.986Z,2.50
2024-01-29T20:38:36.310Z,2.50
2024-01-29T20:41:23.765Z,2.50
2024-01-29T20:44:09.701Z,2.50
2024-01-29T20:46:48.913Z,2.50
2024-01-29T20:49:26.987Z,2.50
2024-01-29T20:52:04.276Z,2.50
2024-01-29T20:54:42.394Z,2.50
2024-01-29T20:57:18.904Z,2.50
2024-01-29T20:59:56.692Z,2.50
2024-01-29T21:02:33.978Z,2.40
2024-01-29T21:05:18.848Z,2.40
2024-01-29T21:07:56.624Z,2.40
2024-01-29T21:10:34.570Z,2.40
2024-01-29T21:13:15.503Z,2.34
2024-01-29T21:15:53.148Z,2.30
2024-01-29T21:18:30.234Z,2.30
2024-01-29T21:21:09.636Z,2.30
2024-01-29T21:23:46.386Z,2.30
2024-01-29T21:26:33.722Z,2.30
2024-01-29T21:29:11.353Z,2.30
2024-01-29T21:31:48.938Z,2.30
2024-01-29T21:34:26.655Z,2.30
2024-01-29T21:37:03.130Z,2.30
2024-01-29T21:39:41.031Z,2.30
2024-01-29T21:42:19.822Z,2.28
2024-01-29T21:44:57.190Z,2.20
2024-01-29T21:47:33.995Z,2.28
2024-01-29T21:50:15.407Z,2.26
2024-01-29T21:52:53.041Z,2.22
2024-01-29T21:55:29.985Z,2.22
2024-01-29T21:58:08.069Z,2.20
2024-01-29T22:00:45.158Z,2.20
2024-01-29T22:03:24.991Z,2.20
2024-01-29T22:06:01.392Z,2.10
2024-01-29T22:08:39.484Z,2.10
2024-01-29T22:11:17.013Z,2.10
2024-01-29T22:13:54.183Z,2.10
2024-01-29T22:16:31.366Z,2.10
2024-01-29T22:19:12.025Z,2.06
2024-01-29T22:21:59.533Z,2.00
2024-01-29T22:24:36.552Z,2.00
2024-01-29T22:27:17.632Z,2.00
2024-01-29T22:29:54.817Z,2.00
2024-01-29T22:32:32.503Z,2.00
2024-01-29T22:35:12.698Z,2.00
2024-01-29T22:37:49.251Z,1.94
2024-01-29T22:40:27.107Z,1.92
2024-01-29T22:43:04.607Z,1.90
2024-01-29T22:45:42.411Z,1.90
2024-01-29T22:48:18.740Z,1.90
2024-01-29T22:50:56.967Z,1.80
2024-01-29T22:53:33.882Z,1.80
2024-01-29T22:56:12.880Z,1.80
2024-01-29T22:58:49.688Z,1.80
2024-01-29T23:01:26.847Z,1.80
2024-01-29T23:04:03.902Z,1.80
2024-01-29T23:06:41.655Z,1.80
2024-01-29T23:09:18.303Z,1.70
2024-01-29T23:11:55.492Z,1.70
2024-01-29T23:14:33.707Z,1.70
2024-01-29T23:17:12.598Z,1.70
2024-01-29T23:19:50.082Z,1.70
2024-01-29T23:22:27.857Z,1.70
2024-01-29T23:25:04.784Z,1.70
2024-01-29T23:27:42.156Z,1.70
2024-01-29T23:30:23.020Z,1.70
2024-01-29T23:33:00.699Z,1.70
2024-01-29T23:35:40.897Z,1.68
2024-01-29T23:38:17.402Z,1.60
2024-01-29T23:40:55.303Z,1.60
2024-01-29T23:43:32.495Z,1.60
2024-01-29T23:46:10.651Z,1.60
2024-01-29T23:48:48.330Z,1.60
2024-01-29T23:51:25.366Z,1.52
2024-01-29T23:54:03.259Z,1.48
2024-01-29T23:56:39.821Z,1.40
2024-01-29T23:59:17.162Z,1.32
